Aviation Digital Data Service (ADDS)

Output produced by METARs form (0835 UTC 19 April 2019)
found at http://www.aviationweather.gov/metar/data/
 
LRTZ 190800Z 33010KT 9999 SCT030 BKN090 12/05 Q1023 BLU BLU
TAF LRTZ 190500Z 1906/2006 33012KT 9999 BKN200 
     BECMG 1909/1911 SCT040 
     PROB40 
     TEMPO 1912/1918 04010G20KT 4000 SHRA BKN040CB 
     BECMG 1918/1910 VRB03KT SCT200
       
LRCK 190830Z 29012KT 9999 FEW030TCU 14/04 Q1023 NOSIG
TAF LRCK 190500Z 1906/2006 30008KT CAVOK 
     BECMG 1908/1910 02010KT SCT035CB 
     TEMPO 1910/1917 5000 -SHRA 
     PROB40 1911/1916 VRB15G25KT 3000 TSRA BKN010 BKN030CB BKN045 
     BECMG 1916/1918 NSC
       
LRTC 190830Z 32012KT 9999 FEW050CB 12/04 Q1023
TAF LRTC 190800Z 1909/1918 03010KT 9999 SCT040CB 
     TEMPO 1909/1916 5000 -SHRA 
     PROB40 1909/1913 VRB15G25KT 3000 TSRA BKN010 BKN035CB BKN045 
     BECMG 1916/1918 NSC
       
LRFT 190800Z 25008KT 9999 SCT020 BKN080 13/09 Q1023 BLU BLU
TAF LRFT 190500Z 1906/2006 31010KT 9999 SCT070 
     BECMG 1907/1909 SCT050CB BKN060 
     TEMPO 1909/1917 5000 SHRA SCT020 BKN050CB 
     PROB40 
     TEMPO 1910/1915 35015G25KT 3000 TSRA BR SCT010 BKN030CB 
     BECMG 1917/1919 BKN100
       
LRBO 190800Z 09006KT 9999 VCRA SCT040 BKN080 11/08 Q1023 BLU BLU
TAF LRBO 190500Z 1906/2006 28006KT 9999 BKN070 
     BECMG 1909/1910 03014KT SCT040 BKN060 
     TEMPO 1910/1914 02020G30KT SHRA BKN030CB OVC070 
     BECMG 1915/1917 06006KT SCT100
       
LRBC 190830Z 35010KT 9999 FEW036 12/06 Q1024
TAF LRBC 190800Z 1909/1918 35012KT 9999 SCT040 BKN060 
     BECMG 1909/1911 SCT035CB BKN050 
     TEMPO 1911/1915 VRB16G26KT 3000 TSRA BKN010 BKN030CB BKN045
       
LRIA 190830Z 33003KT 260V030 9999 FEW022 11/04 Q1024
TAF LRIA 190800Z 1909/1918 VRB04KT CAVOK 
     BECMG 1909/1911 05014KT SCT035CB BKN045 
     TEMPO 1911/1918 5000 -SHRA 
     PROB40 1911/1915 VRB17G27KT 3000 TSRA BKN010 BKN030CB BKN045
       
LRSV 190830Z 35016KT CAVOK 11/03 Q1025
TAF LRSV 190800Z 1909/1918 35015KT CAVOK 
     TEMPO 1912/1917 5000 -SHRA SCT035CB 
     BECMG 1913/1915 05005KT
       
LROP 190830Z 28012KT 9999 FEW060CB 16/04 Q1022 NOSIG
TAF LROP 190500Z 1906/2006 27007KT CAVOK 
     BECMG 1908/1910 33012KT SCT040CB 
     TEMPO 1910/1916 5000 -SHRA 
     PROB40 
     TEMPO 1911/1914 VRB20G30KT 3000 TSRA SCT015 BKN035CB 
     BECMG 1916/1918 06012KT NSC 
     BECMG 1921/1923 VRB04KT
       
LRBS 190830Z 29008KT 260V350 9999 FEW045CB 16/03 Q1023 TEMPO SCT045CB
TAF LRBS 190500Z 1906/2006 27007KT CAVOK 
     BECMG 1908/1910 33012KT SCT040CB 
     TEMPO 1910/1916 5000 -SHRA 
     PROB40 
     TEMPO 1911/1914 VRB20G30KT 3000 TSRA SCT015 BKN035CB 
     BECMG 1916/1918 06012KT NSC 
     BECMG 1921/1923 VRB04KT
       
LRCV 190830Z 28008KT 9999 FEW024 14/08 Q1025
TAF LRCV 190800Z 1909/1918 29010KT CAVOK 
     BECMG 1912/1914 36010KT 
     TEMPO 1914/1918 5000 -SHRA SCT045CB 
     BECMG 1916/1918 09010KT
       
LRSB 190830Z 34009KT 310V010 9999 FEW056 14/02 Q1025
TAF LRSB 190500Z 1906/2006 VRB04KT 9999 SCT050 
     BECMG 1907/1909 34010KT 
     TEMPO 1910/1916 SCT045CB 
     BECMG 1918/1920 VRB04KT
       
LRAR 190830Z 34006KT 300V030 CAVOK 16/12 Q1028
TAF COR LRAR 190811Z 1909/1918 35012KT CAVOK 
     TEMPO 1911/1917 35015G25KT
       
LRCL 190830Z 32013KT CAVOK 17/M01 Q1025
TAF LRCL 190800Z 1909/1918 34015KT CAVOK 
     BECMG 1916/1918 04005KT
       
LRTR 190830Z 32008KT 9999 FEW030 16/07 Q1027
TAF LRTR 190500Z 1906/2006 VRB03KT CAVOK 
     BECMG 1908/1910 36012KT 
     TEMPO 1911/1917 36015G25KT 
     BECMG 1920/1922 06008KT
       
LRTM 190830Z 30008KT 260V330 9999 FEW030 15/04 Q1024
TAF LRTM 190800Z 1909/1918 30008KT CAVOK 
     BECMG 1909/1911 01012KT
       
LRBM 190830Z 28015KT CAVOK 15/03 Q1025
TAF LRBM 190800Z 1909/1918 28012KT CAVOK 
     BECMG 1910/1912 02010KT 
     BECMG 1915/1917 VRB04KT
       
LRSM 190830Z 35010KT CAVOK 17/02 Q1026
TAF LRSM 190800Z 1909/1918 01012KT CAVOK 
     TEMPO 1910/1917 01017G27KT
       
LROD 190830Z 34005KT 260V060 CAVOK 15/05 Q1027
TAF LROD 190800Z 1909/1918 01012KT CAVOK 
     TEMPO 1910/1917 01016G26KT
       
LRCT 190800Z 00605KT 9999 SKC 14/05 Q1025 BLU BLU
TAF LRCT 190500Z 1906/2006 VRB03KT 9999 SKC 
     TEMPO 1906/1908 24006KT SCT150 
     BECMG 1909/1911 36012KT SCT050 
     PROB30 
     TEMPO 1912/1916 VRB20KT 7000 SHRA SCT035CB BKN070 
     BECMG 1918/1920 04005KT SKC